• Join FlightAware (Why Join?)
  • Login
  • US Flag 
12:27PM EDT


 

Airport Tracker/Info


-or-


 

Live Flight TrackerFlight Track Log ✈ UAL139 ✈ 14-Aug-2013 ✈ KDEN - RJAA / NRT

Flight Track Log - Related Links

Times and Time Zones

All times are in EDT time to prevent confusion due to time zone crossing. See the UAL139 flight status page for this flight to view local times or setup timezone preferences in your user account.

Time Position Orientation Groundspeed Altitude Reporting Facility
EDT Latitude Longitude Course Direction KTS MPH feet Rate Location/Type
02:43PM 39.8680 -104.6960 360° North 148 170 5,000  Level FlightAware
02:43PM 39.8806 -104.6960 360° North 200 230 5,100 1,560 Climbing FlightAware ADS-B
02:43PM 39.8954 -104.6960 360° North 201 231 5,800 2,460 Climbing FlightAware ADS-B
02:43PM 39.9023 -104.6960 360° North 200 230 6,100 2,100 Climbing FlightAware ADS-B
02:43PM 39.9137 -104.6960 360° North 209 241 6,500 1,860 Climbing FlightAware ADS-B
02:43PM 39.9177 -104.6970 349° North 214 246 6,600 720 Climbing FlightAware ADS-B
02:44PM 39.9215 -104.6970 360° North 219 252 6,600 480 Level FlightAware ADS-B
02:44PM 39.9300 -104.6990 350° North 231 266 6,700 960 Climbing FlightAware ADS-B
02:44PM 39.9474 -104.7050 345° North 254 292 7,000 1,500 Climbing FlightAware ADS-B
02:44PM 39.9656 -104.7100 348° North 266 306 7,500 1,800 Climbing FlightAware ADS-B
02:44PM 39.9845 -104.7150 349° North 279 321 7,900 2,160 Climbing FlightAware ADS-B
02:45PM 40.0039 -104.7200 349° North 283 326 8,600 3,180 Climbing FlightAware ADS-B
02:45PM 40.0251 -104.7260 348° North 279 321 9,600 3,180 Climbing FlightAware ADS-B
02:45PM 40.0384 -104.7300 347° North 280 322 10,100 1,980 Climbing FlightAware ADS-B
02:45PM 40.0587 -104.7370 345° North 298 343 10,500 1,380 Climbing FlightAware ADS-B
02:46PM 40.1001 -104.7560 341° North 328 377 11,200 1,980 Climbing FlightAware ADS-B
02:46PM 40.1442 -104.7770 340° North 337 388 12,500 2,700 Climbing FlightAware ADS-B
02:47PM 40.1919 -104.7990 341° North 344 396 14,000 2,640 Climbing FlightAware ADS-B
02:47PM 40.2390 -104.8210 340° North 348 400 15,300 2,580 Climbing FlightAware ADS-B
02:48PM 40.2860 -104.8430 340° North 352 405 16,700 2,460 Climbing FlightAware
02:49PM 40.3347 -104.8660 340° North 358 412 17,900 2,160 Climbing FlightAware ADS-B
02:49PM 40.3893 -104.8910 341° North 366 421 19,100 2,100 Climbing FlightAware ADS-B
02:50PM 40.4390 -104.9150 340° North 375 432 20,200 2,040 Climbing FlightAware ADS-B
02:50PM 40.4886 -104.9380 341° North 383 441 21,200 1,740 Climbing FlightAware ADS-B
02:51PM 40.5398 -104.9620 340° North 395 455 22,000 1,740 Climbing FlightAware ADS-B
02:51PM 40.5937 -104.9870 341° North 401 461 23,000 1,920 Climbing FlightAware ADS-B
02:52PM 40.6462 -105.0120 340° North 404 465 24,000 1,860 Climbing FlightAware ADS-B
02:52PM 40.7013 -105.0380 340° North 410 472 24,900 1,680 Climbing FlightAware ADS-B
02:52PM 40.7385 -105.0560 340° North 413 475 25,500 1,680 Climbing FlightAware ADS-B
02:53PM 40.7577 -105.0680 335° Northwest 414 476 25,800 1,620 Climbing FlightAware ADS-B
02:53PM 40.7876 -105.0940 327° Northwest 417 480 26,300 1,680 Climbing FlightAware ADS-B
02:54PM 40.8438 -105.1570 320° Northwest 421 484 27,400 1,620 Climbing FlightAware ADS-B
02:54PM 40.9072 -105.2290 319° Northwest 425 489 28,500 1,440 Climbing FlightAware ADS-B
02:55PM 40.9580 -105.2860 320° Northwest 425 489 29,300 1,320 Climbing FlightAware ADS-B
02:56PM 41.0280 -105.3680 319° Northwest 436 502 30,300 1,320 Climbing FlightAware
02:56PM 41.0860 -105.4530 312° West 437 503 31,300 1,260 Climbing FlightAware
02:57PM 41.1290 -105.5210 310° West 441 507 31,900 1,140 Climbing FlightAware
02:58PM 41.1740 -105.5950 309° West 446 513 32,600 1,080 Climbing FlightAware
02:58PM 41.2220 -105.6730 309° West 450 518 33,200 960 Climbing FlightAware
02:59PM 41.2640 -105.7410 309° West 454 522 33,700 960 Climbing FlightAware
02:59PM 41.3100 -105.8150 310° West 456 525 34,300 1,140 Climbing FlightAware
03:00PM 41.3630 -105.8960 311° West 455 524 35,100 1,320 Climbing FlightAware
03:00PM 41.4060 -105.9630 311° West 448 516 35,900 1,200 Climbing FlightAware
03:01PM 41.4600 -106.0470 311° West 447 514 36,600 960 Climbing FlightAware
03:02PM 41.5050 -106.1180 310° West 445 512 37,100 840 Climbing FlightAware
03:02PM 41.5530 -106.1930 311° West 444 511 37,600 780 Climbing FlightAware
03:03PM 41.5950 -106.2590 310° West 444 511 38,000 360 Climbing FlightAware
03:03PM 41.6380 -106.3270 310° West 444 511 38,000  Level FlightAware
03:04PM 41.6860 -106.4040 310° West 446 513 38,000  Level FlightAware
03:05PM 41.7330 -106.4780 310° West 446 513 38,000  Level FlightAware
03:05PM 41.7840 -106.5610 310° West 446 513 38,000  Level FlightAware
03:06PM 41.8260 -106.6280 310° West 446 513 38,000  Level FlightAware
03:07PM 41.8670 -106.6930 310° West 446 513 38,000  Level FlightAware
03:07PM 41.9070 -106.7570 310° West 446 513 38,000  Level FlightAware
03:08PM 41.9480 -106.8230 310° West 446 513 38,000  Level FlightAware
03:08PM 41.9880 -106.8880 310° West 446 513 38,000  Level FlightAware
03:09PM 42.0290 -106.9530 310° West 446 513 38,000  Level FlightAware
03:10PM 42.0700 -107.0180 310° West 446 513 38,000  Level FlightAware
03:10PM 42.1120 -107.0870 309° West 446 513 38,000  Level FlightAware
03:11PM 42.1580 -107.1590 311° West 446 513 38,000  Level FlightAware
03:11PM 42.1980 -107.2240 310° West 446 513 38,000  Level FlightAware
03:12PM 42.2390 -107.2900 310° West 446 513 38,000  Level FlightAware
03:13PM 42.2820 -107.3590 310° West 446 513 38,000  Level FlightAware
03:13PM 42.3220 -107.4240 310° West 446 513 38,000  Level FlightAware
03:14PM 42.3490 -107.4680 310° West 446 513 38,000  Level FlightAware
03:14PM 42.4981 -107.7189 310° West 446 513 38,000  Level Salt Lake Center
03:15PM 42.5739 -107.8433 310° West 448 516 38,000  Level Salt Lake Center
03:16PM 42.6617 -107.9892 309° West 447 514 38,000  Level Salt Lake Center
03:17PM 42.7375 -108.1183 309° West 453 521 38,000  Level Salt Lake Center
03:18PM 42.8264 -108.2689 309° West 456 525 38,000  Level Salt Lake Center
03:20PM 42.9033 -108.4000 309° West 461 531 38,000  Level Salt Lake Center
03:21PM 42.9836 -108.5364 309° West 455 524 38,000  Level Salt Lake Center
03:22PM 43.0681 -108.6658 312° West 455 524 38,000  Level Salt Lake Center
03:23PM 43.1714 -108.8181 313° West 454 522 38,000  Level Salt Lake Center
03:24PM 43.2575 -108.9458 313° West 456 525 38,000  Level Salt Lake Center
03:25PM 43.3347 -109.0817 308° West 453 521 38,000  Level Salt Lake Center
03:26PM 43.4133 -109.2192 308° West 456 525 38,000  Level Salt Lake Center
03:27PM 43.4911 -109.3575 308° West 458 527 38,000  Level Salt Lake Center
03:28PM 43.5811 -109.5156 308° West 451 519 38,000  Level Salt Lake Center
03:29PM 43.6556 -109.6456 308° West 449 517 38,000  Level Salt Lake Center
03:30PM 43.7389 -109.7969 307° West 445 512 38,000  Level Salt Lake Center
03:31PM 43.8119 -109.9258 308° West 445 512 38,000  Level Salt Lake Center
03:32PM 43.8858 -110.0544 309° West 446 513 38,000  Level Salt Lake Center
03:33PM 43.9694 -110.2078 307° West 447 514 38,000  Level Salt Lake Center
03:34PM 44.0422 -110.3386 308° West 446 513 38,000  Level Salt Lake Center
03:35PM 44.1253 -110.4942 307° West 447 514 38,000  Level Salt Lake Center
03:36PM 44.1972 -110.6258 307° West 447 514 38,000  Level Salt Lake Center
03:37PM 44.2803 -110.7797 307° West 447 514 38,000  Level Salt Lake Center
03:38PM 44.3517 -110.9131 307° West 448 516 38,000  Level Salt Lake Center
03:39PM 44.4356 -111.0678 307° West 448 516 38,000  Level Salt Lake Center
03:40PM 44.5064 -111.2003 307° West 447 514 38,000  Level Salt Lake Center
03:41PM 44.5892 -111.3531 307° West 448 516 38,000  Level Salt Lake Center
03:42PM 44.6686 -111.5086 306° West 454 522 38,000  Level Salt Lake Center
03:43PM 44.7400 -111.6436 307° West 453 521 38,000  Level Salt Lake Center
03:44PM 44.8222 -111.8028 306° West 452 520 38,000  Level Salt Lake Center
03:45PM 44.8936 -111.9386 307° West 451 519 38,000  Level Salt Lake Center
03:46PM 44.9633 -112.0750 306° West 449 517 38,000  Level Salt Lake Center
03:47PM 45.0447 -112.2322 306° West 446 513 38,000  Level Salt Lake Center
03:48PM 45.1125 -112.3678 305° West 442 509 38,000  Level Salt Lake Center
03:50PM 45.1922 -112.5228 306° West 438 504 38,000  Level Salt Lake Center
03:51PM 45.2603 -112.6539 306° West 434 499 38,000  Level Salt Lake Center
03:52PM 45.3381 -112.8111 305° West 435 501 38,000  Level Salt Lake Center
03:53PM 45.4033 -112.9414 306° West 433 498 38,000  Level Salt Lake Center
03:54PM 45.4742 -113.0853 305° West 438 504 38,000  Level Salt Lake Center
03:55PM 45.5594 -113.2544 306° West 438 504 38,000  Level Salt Lake Center
03:56PM 45.6297 -113.3944 306° West 435 501 38,000  Level Salt Lake Center
03:57PM 45.6986 -113.5353 305° West 432 497 38,000  Level Salt Lake Center
03:58PM 45.7608 -113.6606 305° West 439 505 38,000 -60 Level Salt Lake Center
03:59PM 45.8450 -113.8322 305° West 439 505 37,900  Descending Salt Lake Center
04:00PM 45.9158 -113.9778 305° West 444 511 38,000  Climbing Salt Lake Center
04:01PM 45.9847 -114.1231 304° West 441 507 37,900 -60 Descending Salt Lake Center
04:02PM 46.0542 -114.2686 305° West 442 509 37,900  Level Salt Lake Center
04:03PM 46.1247 -114.4156 305° West 445 512 37,900  Level Salt Lake Center
04:04PM 46.1933 -114.5636 304° West 445 512 38,000  Climbing Salt Lake Center
04:05PM 46.2764 -114.7400 304° West 444 511 37,900  Descending Salt Lake Center
04:06PM 46.3458 -114.8867 304° West 443 510 38,000  Climbing Salt Lake Center
04:07PM 46.4158 -115.0361 304° West 447 514 37,900  Descending Salt Lake Center
04:08PM 46.4858 -115.1872 304° West 449 517 38,000 480 Climbing Salt Lake Center
04:09PM 46.5633 -115.3550 304° West 448 516 38,900 660 Climbing Salt Lake Center
04:10PM 46.6231 -115.4878 303° West 446 513 39,400 480 Climbing Salt Lake Center
04:11PM 46.7061 -115.6697 304° West 449 517 39,900 240 Climbing Salt Lake Center
04:12PM 46.7750 -115.8208 304° West 449 517 40,000  Climbing Salt Lake Center
04:13PM 46.8425 -115.9725 303° West 447 514 40,000  Level Salt Lake Center
04:14PM 46.9042 -116.1094 303° West 445 512 40,000 -60 Level Salt Lake Center
04:15PM 46.9856 -116.2925 303° West 449 517 39,900 -60 Descending Salt Lake Center
04:17PM 47.0661 -116.4747 303° West 446 513 39,900  Level Seattle Center
04:18PM 47.1478 -116.6600 303° West 451 519 39,900  Level Seattle Center
04:19PM 47.2150 -116.8139 303° West 449 517 39,900  Level Seattle Center
04:20PM 47.2822 -116.9697 302° West 448 516 40,000  Climbing Seattle Center
04:21PM 47.3506 -117.1283 302° West 452 520 39,900 -60 Descending Seattle Center
04:22PM 47.4189 -117.2892 302° West 454 522 39,900  Level Seattle Center
04:27PM 47.7600 -118.1110 302° West 454 522 40,000  Climbing FlightAware
04:27PM 47.7900 -118.1840 301° West 452 520 40,000  Level FlightAware
04:28PM 47.8320 -118.2910 300° West 451 519 40,000  Level FlightAware
04:29PM 47.8710 -118.3890 301° West 452 520 40,000  Level FlightAware
04:29PM 47.9090 -118.4850 301° West 452 520 40,000  Level FlightAware
04:30PM 47.9440 -118.5720 301° West 451 519 40,000  Level FlightAware
04:30PM 47.9800 -118.6650 300° West 452 520 40,000  Level FlightAware
04:31PM 48.0064 -118.7320 301° West 454 522 40,000  Level FlightAware ADS-B
04:31PM 48.0389 -118.8160 300° West 455 524 40,000  Level FlightAware ADS-B
04:32PM 48.0793 -118.9190 300° West 456 525 40,000  Level FlightAware ADS-B
04:33PM 48.1156 -119.0130 300° West 457 526 40,000  Level FlightAware ADS-B
04:33PM 48.1484 -119.0980 300° West 459 528 40,000  Level FlightAware ADS-B
04:34PM 48.1831 -119.1880 300° West 459 528 40,000  Level FlightAware ADS-B
04:34PM 48.2147 -119.2700 300° West 458 527 40,000  Level FlightAware ADS-B
04:35PM 48.2466 -119.3540 300° West 459 528 40,000  Level FlightAware ADS-B
04:35PM 48.2790 -119.4390 300° West 460 529 40,000  Level FlightAware ADS-B
04:36PM 48.3123 -119.5260 300° West 458 527 40,000  Level FlightAware ADS-B
04:36PM 48.3442 -119.6100 300° West 459 528 40,000  Level FlightAware ADS-B
04:37PM 48.3755 -119.6940 299° West 460 529 40,000  Level FlightAware ADS-B
04:37PM 48.4075 -119.7780 300° West 459 528 40,000  Level FlightAware ADS-B
04:38PM 48.4389 -119.8620 299° West 458 527 40,000  Level FlightAware ADS-B
04:38PM 48.4701 -119.9450 300° West 459 528 40,000  Level FlightAware ADS-B
04:39PM 48.5014 -120.0290 299° West 460 529 40,000  Level FlightAware ADS-B
04:39PM 48.5334 -120.1150 299° West 460 529 40,000  Level FlightAware ADS-B
04:40PM 48.5644 -120.1990 299° West 459 528 40,000  Level FlightAware ADS-B
04:40PM 48.6049 -120.3090 299° West 461 531 40,000  Level FlightAware ADS-B
04:41PM 48.6364 -120.3940 299° West 463 533 40,000  Level FlightAware ADS-B
04:41PM 48.6680 -120.4800 299° West 466 536 40,000  Level FlightAware ADS-B
04:42PM 48.6999 -120.5670 299° West 465 535 40,000  Level FlightAware ADS-B
04:42PM 48.7309 -120.6530 299° West 466 536 40,000  Level FlightAware ADS-B
04:43PM 48.7624 -120.7390 299° West 467 537 40,000  Level FlightAware ADS-B
04:43PM 48.7966 -120.8340 299° West 467 537 40,000  Level FlightAware ADS-B
04:44PM 48.8276 -120.9200 299° West 467 537 40,000  Level FlightAware ADS-B
04:44PM 48.8630 -121.0150 300° West 468 539 40,000  Level FlightAware
04:45PM 48.8950 -121.0960 301° West 468 539 40,000  Level FlightAware
04:45PM 48.9159 -121.1500 301° West 469 540 40,000  Level FlightAware ADS-B
04:46PM 48.9527 -121.2450 301° West 469 540 40,000  Level FlightAware ADS-B
04:46PM 48.9858 -121.3320 300° West 468 539 40,000  Level FlightAware ADS-B
04:47PM 49.0185 -121.4180 300° West 471 542 40,000  Level FlightAware ADS-B
04:47PM 49.0520 -121.5070 300° West 473 544 40,000  Level FlightAware ADS-B
04:48PM 49.0849 -121.5940 300° West 473 544 40,000  Level FlightAware ADS-B
04:48PM 49.1182 -121.6820 300° West 473 544 40,000  Level FlightAware ADS-B
04:49PM 49.1510 -121.7700 300° West 475 547 40,000  Level FlightAware ADS-B
04:49PM 49.1854 -121.8610 300° West 474 545 40,000  Level FlightAware ADS-B
04:50PM 49.2179 -121.9490 300° West 475 547 40,000  Level FlightAware ADS-B
04:50PM 49.2508 -122.0370 300° West 476 548 40,000  Level FlightAware ADS-B
04:51PM 49.2890 -122.1400 300° West 478 550 40,000  Level FlightAware ADS-B
04:51PM 49.3213 -122.2280 299° West 478 550 40,000  Level FlightAware ADS-B
04:52PM 49.3540 -122.3180 299° West 475 547 40,000  Level FlightAware
04:53PM 49.4009 -122.4450 300° West 475 547 40,000  Level FlightAware ADS-B
04:53PM 49.4414 -122.5560 299° West 475 547 40,000  Level FlightAware ADS-B
04:54PM 49.5022 -122.7230 299° West 476 548 40,000  Level FlightAware ADS-B
04:55PM 49.5358 -122.8170 299° West 479 551 40,000  Level FlightAware ADS-B
04:55PM 49.5685 -122.9080 299° West 480 552 40,000  Level FlightAware ADS-B
04:56PM 49.6007 -122.9970 299° West 482 555 40,000  Level FlightAware ADS-B
04:56PM 49.6336 -123.0900 299° West 484 557 40,000  Level FlightAware ADS-B
04:57PM 49.6659 -123.1800 299° West 482 555 40,000  Level FlightAware ADS-B
04:57PM 49.6992 -123.2740 299° West 481 554 40,000  Level FlightAware ADS-B
04:58PM 49.7690 -123.4710 299° West 485 558 40,000  Level FlightAware
04:59PM 49.8070 -123.5810 298° West 486 559 40,000  Level FlightAware
04:59PM 49.8350 -123.6620 298° West 487 560 40,000  Level FlightAware
05:00PM 49.8790 -123.7870 299° West 487 560 40,000  Level FlightAware
05:00PM 49.8992 -123.8460 298° West 486 559 40,000  Level FlightAware ADS-B
05:01PM 49.9329 -123.9430 298° West 483 556 40,000  Level FlightAware ADS-B
05:02PM 49.9652 -124.0370 298° West 482 555 40,000  Level FlightAware ADS-B
05:02PM 49.9969 -124.1300 298° West 482 555 40,000  Level FlightAware ADS-B
05:03PM 50.0346 -124.2410 298° West 483 556 40,000  Level FlightAware ADS-B
05:03PM 50.0620 -124.3210 298° West 485 558 40,000  Level FlightAware
05:04PM 50.0990 -124.4290 298° West 484 557 40,000  Level FlightAware
05:04PM 50.1360 -124.5400 298° West 486 559 40,000  Level FlightAware
05:05PM 50.1740 -124.6530 298° West 487 560 40,000  Level FlightAware
05:05PM 50.2110 -124.7580 299° West 483 556 40,000  Level FlightAware
05:06PM 50.2540 -124.8610 303° West 487 560 40,000  Level FlightAware
05:07PM 50.2970 -124.9670 302° West 488 562 40,000  Level FlightAware
05:07PM 50.3340 -125.0550 303° West 486 559 40,000  Level FlightAware
05:08PM 50.3830 -125.1750 303° West 484 557 40,000  Level FlightAware
05:08PM 50.4260 -125.2790 303° West 483 556 40,000  Level FlightAware
05:09PM 50.4680 -125.3830 302° West 486 559 40,000  Level FlightAware
05:10PM 50.5100 -125.4850 303° West 486 559 40,000  Level FlightAware
05:10PM 50.5530 -125.5910 303° West 486 559 40,000  Level FlightAware
05:11PM 50.5920 -125.6880 302° West 486 559 40,000  Level FlightAware
05:11PM 50.6450 -125.8190 303° West 490 564 40,000  Level FlightAware
05:12PM 50.6850 -125.9210 302° West 492 566 40,000  Level FlightAware
05:13PM 50.7300 -126.0330 302° West 492 566 40,000  Level FlightAware
05:13PM 50.7760 -126.1500 302° West 502 578 40,000  Level FlightAware
05:14PM 50.8430 -126.3190 302° West 503 579 40,000  Level FlightAware
05:15PM 50.8860 -126.4290 302° West 505 581 40,000  Level FlightAware
05:16PM 50.9380 -126.5600 302° West 505 581 40,000  Level FlightAware
05:16PM 50.9850 -126.6820 301° West 505 581 40,000  Level FlightAware
05:17PM 51.0230 -126.7780 302° West 505 581 40,000  Level FlightAware
05:17PM 51.0610 -126.8750 302° West 505 581 40,000  Level FlightAware
05:18PM 51.1000 -126.9740 302° West 505 581 40,000  Level FlightAware
05:19PM 51.1390 -127.0730 302° West 505 581 40,000  Level FlightAware
05:19PM 51.1770 -127.1700 302° West 505 581 40,000  Level FlightAware
05:20PM 51.2160 -127.2690 302° West 505 581 40,000  Level FlightAware
05:20PM 51.2550 -127.3690 302° West 505 581 40,000  Level FlightAware
05:21PM 51.2920 -127.4660 301° West 505 581 40,000  Level FlightAware
05:22PM 51.3310 -127.5660 302° West 505 581 40,000  Level FlightAware
05:22PM 51.3690 -127.6630 302° West 505 581 40,000  Level FlightAware
05:23PM 51.4080 -127.7620 302° West 505 581 40,000  Level FlightAware
05:23PM 51.4460 -127.8600 302° West 505 581 40,000  Level FlightAware
05:24PM 51.4840 -127.9570 302° West 505 581 40,000  Level FlightAware
05:25PM 51.5220 -128.0540 302° West 505 581 40,000  Level FlightAware
05:25PM 51.5610 -128.1550 302° West 505 581 40,000  Level FlightAware
05:26PM 51.6833 -128.5667 302° West 500 575 40,000  Level Vancouver Center
05:27PM 51.7333 -128.7833 291° West 510 587 40,000  Level Vancouver Center
05:28PM 51.8167 -128.9833 304° West 510 587 40,000  Level Vancouver Center
05:29PM 51.8833 -129.1500 303° West 510 587 40,000  Level Vancouver Center
05:30PM 51.9667 -129.3833 300° West 510 587 40,000  Level Vancouver Center
05:31PM 52.0167 -129.5833 292° West 510 587 40,000  Level Vancouver Center
05:32PM 52.1000 -129.7833 304° West 510 587 40,000  Level Vancouver Center
05:33PM 52.1667 -129.9833 299° West 510 587 40,000  Level Vancouver Center
05:34PM 52.2167 -130.1833 292° West 510 587 40,000  Level Vancouver Center
05:35PM 52.3000 -130.3833 304° West 510 587 40,000  Level Vancouver Center
05:36PM 52.3667 -130.5833 299° West 520 598 40,000  Level Vancouver Center
05:37PM 52.4333 -130.7833 299° West 520 598 40,000  Level Vancouver Center
05:38PM 52.5000 -130.9833 299° West 510 587 40,000  Level Vancouver Center
05:39PM 52.5667 -131.2167 295° West 510 587 40,000  Level Vancouver Center
05:40PM 52.6333 -131.4000 301° West 510 587 40,000  Level Vancouver Center
05:41PM 52.7000 -131.6000 299° West 510 587 40,000  Level Vancouver Center
05:42PM 52.7667 -131.8333 295° West 510 587 40,000  Level Vancouver Center
05:43PM 52.8333 -132.0500 297° West 510 587 40,000  Level Vancouver Center
05:44PM 52.9000 -132.2500 299° West 520 598 40,000  Level Vancouver Center
05:45PM 52.9667 -132.4667 297° West 520 598 40,000  Level Vancouver Center
05:46PM 53.0167 -132.6667 293° West 520 598 40,000  Level Vancouver Center
05:47PM 53.0833 -132.9000 296° West 520 598 40,000  Level Vancouver Center
05:48PM 53.1500 -133.1167 297° West 520 598 40,000  Level Vancouver Center
05:49PM 53.2167 -133.3167 299° West 520 598 40,000  Level Vancouver Center
05:50PM 53.2833 -133.5333 297° West 520 598 40,000  Level Vancouver Center
05:51PM 53.3500 -133.7667 296° West 520 598 40,000  Level Vancouver Center
05:52PM 53.4000 -133.9833 291° West 520 598 40,000  Level Vancouver Center
05:53PM 53.4667 -134.2000 297° West 520 598 40,000  Level Vancouver Center
05:54PM 53.5333 -134.4167 297° West 510 587 40,000  Level Vancouver Center
05:55PM 53.6000 -134.6167 299° West 510 587 40,000  Level Vancouver Center
05:56PM 53.6500 -134.8333 291° West 510 587 40,000  Level Vancouver Center
05:57PM 53.7167 -135.0500 298° West 510 587 40,000  Level Vancouver Center
05:58PM 53.7833 -135.2667 298° West 510 587 40,000  Level Vancouver Center
05:59PM 53.8167 -135.4833 285° West 510 587 40,000  Level Vancouver Center
05:59PM 53.8667 -135.5500 322° Northwest 500 575 40,000  Level Anchorage Center
06:00PM 53.9333 -135.7667 298° West 500 575 40,000  Level Anchorage Center
06:01PM 53.9833 -135.9833 292° West 500 575 40,000  Level Anchorage Center
06:02PM 54.0500 -136.2000 298° West 500 575 40,000  Level Anchorage Center
06:03PM 54.1167 -136.4000 300° West 500 575 40,000  Level Anchorage Center
06:04PM 54.1833 -136.6000 300° West 500 575 40,000  Level Anchorage Center
06:05PM 54.2500 -136.8167 298° West 500 575 40,000  Level Anchorage Center
06:06PM 54.3167 -137.0167 300° West 490 564 40,000  Level Anchorage Center
06:07PM 54.3833 -137.2333 298° West 500 575 40,000  Level Anchorage Center
06:08PM 54.4500 -137.4500 298° West 500 575 40,000  Level Anchorage Center
06:09PM 54.5167 -137.6500 300° West 500 575 40,000  Level Anchorage Center
06:10PM 54.5833 -137.8667 298° West 500 575 40,000  Level Anchorage Center
06:11PM 54.6333 -138.0667 293° West 480 552 40,000  Level Anchorage Center
06:12PM 54.7000 -138.2833 298° West 490 564 40,000  Level Anchorage Center
06:13PM 54.7667 -138.5000 298° West 500 575 40,000  Level Anchorage Center
06:14PM 54.8167 -138.7167 292° West 490 564 40,000  Level Anchorage Center
06:15PM 54.8833 -138.9333 298° West 500 575 40,000  Level Anchorage Center
06:16PM 54.9500 -139.1500 298° West 500 575 40,000  Level Anchorage Center
06:17PM 55.0000 -139.3500 294° West 490 564 40,000  Level Anchorage Center
06:18PM 55.0667 -139.5667 298° West 500 575 40,000  Level Anchorage Center
06:19PM 55.1333 -139.7833 298° West 490 564 40,000  Level Anchorage Center
06:20PM 55.1833 -140.0000 292° West 490 564 40,000  Level Anchorage Center
06:21PM 55.2500 -140.2167 298° West 490 564 40,000  Level Anchorage Center
06:22PM 55.3000 -140.4333 292° West 490 564 40,000  Level Anchorage Center
06:23PM 55.3667 -140.6500 299° West 500 575 40,000  Level Anchorage Center
06:24PM 55.4333 -140.8833 297° West 510 587 40,000  Level Anchorage Center
06:25PM 55.4833 -141.0833 294° West 480 552 40,000  Level Anchorage Center
06:26PM 55.5333 -141.3167 291° West 490 564 40,000  Level Anchorage Center
06:27PM 55.6000 -141.5333 299° West 490 564 40,000  Level Anchorage Center
06:28PM 55.6500 -141.7333 294° West 490 564 40,000  Level Anchorage Center
06:29PM 55.7000 -141.9500 292° West 480 552 40,000  Level Anchorage Center
06:30PM 55.7500 -142.1833 291° West 480 552 40,000  Level Anchorage Center
06:31PM 55.8167 -142.4000 299° West 480 552 40,000  Level Anchorage Center
06:32PM 55.8667 -142.6333 291° West 490 564 40,000  Level Anchorage Center
06:33PM 55.9167 -142.8500 292° West 490 564 40,000  Level Anchorage Center
06:34PM 55.9833 -143.0833 297° West 490 564 40,000  Level Anchorage Center
06:35PM 56.0333 -143.3000 293° West 480 552 40,000  Level Anchorage Center
06:36PM 56.0833 -143.5167 293° West 490 564 40,000  Level Anchorage Center
06:37PM 56.1333 -143.7500 291° West 490 564 40,000  Level Anchorage Center
06:38PM 56.1833 -143.9833 291° West 480 552 40,000  Level Anchorage Center
06:39PM 56.2333 -144.2000 293° West 490 564 40,000  Level Anchorage Center
06:40PM 56.2833 -144.4333 291° West 490 564 40,000  Level Anchorage Center
06:42PM 56.3333 -144.6667 291° West 490 564 40,000  Level Anchorage Center
06:42PM 56.3833 -144.9000 291° West 480 552 40,000  Level Anchorage Center
06:43PM 56.4333 -145.1167 293° West 480 552 40,000  Level Anchorage Center
06:44PM 56.4833 -145.3500 291° West 490 564 40,000  Level Anchorage Center
06:45PM 56.5333 -145.5833 291° West 490 564 40,000  Level Anchorage Center
06:46PM 56.5833 -145.8167 291° West 490 564 40,000  Level Anchorage Center
06:47PM 56.6333 -146.0500 291° West 490 564 40,000  Level Anchorage Center
06:48PM 56.6833 -146.2833 291° West 490 564 40,000  Level Anchorage Center
06:49PM 56.7333 -146.5167 291° West 490 564 40,000  Level Anchorage Center
06:50PM 56.7833 -146.7667 290° West 490 564 40,000  Level Anchorage Center
06:51PM 56.8167 -147.0000 285° West 490 564 40,000  Level Anchorage Center
06:52PM 56.8667 -147.2333 291° West 500 575 40,000  Level Anchorage Center
06:53PM 56.9167 -147.4833 290° West 490 564 40,000  Level Anchorage Center
06:54PM 56.9667 -147.7167 292° West 490 564 40,000  Level Anchorage Center
06:55PM 57.0000 -147.9500 285° West 490 564 40,000  Level Anchorage Center
06:56PM 57.0500 -148.1833 292° West 490 564 40,000  Level Anchorage Center
06:57PM 57.1000 -148.4333 290° West 490 564 40,000  Level Anchorage Center
06:59PM 57.1333 -148.6833 284° West 490 564 40,000  Level Anchorage Center
07:00PM 57.1833 -148.9167 292° West 490 564 40,000  Level Anchorage Center
07:01PM 57.2167 -149.1667 284° West 490 564 40,000  Level Anchorage Center
07:02PM 57.2667 -149.4000 292° West 480 552 40,000  Level Anchorage Center
07:03PM 57.3000 -149.6500 284° West 490 564 40,000  Level Anchorage Center
07:04PM 57.3500 -149.9000 290° West 500 575 40,000  Level Anchorage Center
07:05PM 57.3833 -150.1333 285° West 490 564 40,000  Level Anchorage Center
07:06PM 57.4333 -150.3833 290° West 500 575 40,000  Level Anchorage Center
07:07PM 57.4667 -150.6333 284° West 490 564 40,000  Level Anchorage Center
07:08PM 57.5000 -150.8833 284° West 500 575 40,000  Level Anchorage Center
07:09PM 57.5500 -151.1000 293° West 500 575 40,000  Level Anchorage Center
07:10PM 57.5833 -151.3500 284° West 490 564 40,000  Level Anchorage Center
07:11PM 57.6167 -151.6000 284° West 490 564 40,000  Level Anchorage Center
07:12PM 57.6500 -151.8500 284° West 500 575 40,000  Level Anchorage Center
07:13PM 57.6833 -152.1000 284° West 500 575 40,000  Level Anchorage Center
07:14PM 57.7167 -152.3667 283° West 500 575 40,000  Level Anchorage Center
07:15PM 57.7500 -152.6167 284° West 490 564 40,000  Level Anchorage Center
07:16PM 57.7833 -152.8667 284° West 480 552 40,000  Level Anchorage Center
07:17PM 57.8167 -153.1167 284° West 490 564 40,000  Level Anchorage Center
07:18PM 57.8500 -153.3667 284° West 490 564 40,000  Level Anchorage Center
07:19PM 57.8833 -153.6167 284° West 490 564 40,000  Level Anchorage Center
07:20PM 57.9167 -153.8667 284° West 490 564 40,000  Level Anchorage Center
07:21PM 57.9500 -154.1167 284° West 490 564 40,000  Level Anchorage Center
07:22PM 57.9833 -154.3667 284° West 490 564 40,000  Level Anchorage Center
07:23PM 58.0000 -154.6333 277° West 490 564 40,000  Level Anchorage Center
07:24PM 58.0333 -154.8833 284° West 490 564 40,000  Level Anchorage Center
07:25PM 58.0667 -155.1333 284° West 500 575 40,000  Level Anchorage Center
07:26PM 58.1000 -155.4000 283° West 500 575 40,000  Level Anchorage Center
07:27PM 58.1333 -155.6500 284° West 490 564 40,000  Level Anchorage Center
07:28PM 58.1500 -155.9167 277° West 500 575 40,000  Level Anchorage Center
07:29PM 58.1833 -156.1833 283° West 490 564 40,000  Level Anchorage Center
07:30PM 58.2000 -156.4333 277° West 490 564 40,000  Level Anchorage Center
07:31PM 58.2333 -156.7000 283° West 490 564 40,000  Level Anchorage Center
07:32PM 58.2500 -156.9667 277° West 490 564 40,000  Level Anchorage Center
07:33PM 58.2833 -157.2167 284° West 490 564 40,000  Level Anchorage Center
07:34PM 58.3000 -157.4833 277° West 490 564 40,000  Level Anchorage Center
07:35PM 58.3333 -157.7500 284° West 490 564 40,000  Level Anchorage Center
07:36PM 58.3500 -158.0000 277° West 490 564 40,000  Level Anchorage Center
07:37PM 58.4000 -158.4167 283° West 500 575 40,000  Level Anchorage Center
07:38PM 58.4167 -158.6833 277° West 490 564 40,000  Level Anchorage Center
07:39PM 58.4333 -158.9500 277° West 500 575 40,000  Level Anchorage Center
07:40PM 58.4500 -159.2167 277° West 500 575 40,000  Level Anchorage Center
07:41PM 58.4833 -159.4833 284° West 490 564 40,000  Level Anchorage Center
07:42PM 58.5000 -159.7500 277° West 480 552 40,000  Level Anchorage Center
07:43PM 58.5167 -160.0000 277° West 490 564 40,000  Level Anchorage Center
07:44PM 58.5333 -160.2667 277° West 480 552 40,000  Level Anchorage Center
07:45PM 58.5500 -160.5333 277° West 490 564 40,000  Level Anchorage Center
07:46PM 58.5667 -160.7833 277° West 490 564 40,000  Level Anchorage Center
07:47PM 58.5833 -161.0500 277° West 490 564 40,000  Level Anchorage Center
07:48PM 58.6000 -161.3167 277° West 490 564 40,000  Level Anchorage Center
07:49PM 58.6167 -161.5833 277° West 490 564 40,000  Level Anchorage Center
07:50PM 58.6333 -161.8500 277° West 490 564 40,000  Level Anchorage Center
07:51PM 58.6500 -162.1167 277° West 510 587 40,000  Level Anchorage Center
07:52PM 58.6667 -162.3833 277° West 500 575 40,000  Level Anchorage Center
07:53PM 58.6833 -162.6667 277° West 480 552 40,000  Level Anchorage Center
07:54PM 58.6833 -162.9500 270° West 500 575 40,000  Level Anchorage Center
07:55PM 58.7000 -163.2000 277° West 490 564 40,000  Level Anchorage Center
07:56PM 58.7000 -163.4833 270° West 500 575 40,000  Level Anchorage Center
07:57PM 58.7167 -163.7500 277° West 500 575 40,000  Level Anchorage Center
07:58PM 58.7333 -164.0167 277° West 500 575 40,000  Level Anchorage Center
07:59PM 58.7333 -164.2833 270° West 500 575 40,000  Level Anchorage Center
08:00PM 58.7500 -164.5500 277° West 490 564 40,000  Level Anchorage Center
08:01PM 58.7500 -164.8167 270° West 490 564 40,000  Level Anchorage Center
08:02PM 58.7500 -165.0833 270° West 490 564 40,000  Level Anchorage Center
08:03PM 58.7667 -165.3667 277° West 510 587 40,000  Level Anchorage Center
08:04PM 58.7667 -165.6333 270° West 490 564 40,000  Level Anchorage Center
08:05PM 58.7667 -165.9000 270° West 500 575 40,000  Level Anchorage Center
08:06PM 58.7833 -166.1667 277° West 500 575 40,000  Level Anchorage Center
08:07PM 58.7833 -166.4333 270° West 500 575 40,000  Level Anchorage Center
08:08PM 58.7833 -166.7167 270° West 500 575 40,000  Level Anchorage Center
08:09PM 58.8000 -166.9667 277° West 500 575 40,000  Level Anchorage Center
08:10PM 58.8000 -167.2333 270° West 500 575 40,000  Level Anchorage Center
08:11PM 58.8000 -167.5000 270° West 500 575 40,000  Level Anchorage Center
08:12PM 58.8000 -167.7833 270° West 500 575 40,000  Level Anchorage Center
08:13PM 58.8000 -168.0500 270° West 510 587 40,000  Level Anchorage Center
08:14PM 58.8000 -168.3167 270° West 500 575 40,000  Level Anchorage Center
08:15PM 58.8000 -168.6000 270° West 500 575 40,000  Level Anchorage Center
08:16PM 58.8000 -168.8667 270° West 500 575 40,000  Level Anchorage Center
08:17PM 58.8000 -169.1500 270° West 510 587 40,000  Level Anchorage Center
08:18PM 58.8000 -169.4167 270° West 510 587 40,000  Level Anchorage Center
08:19PM 58.7833 -169.6833 263° West 500 575 40,000  Level Anchorage Center
08:20PM 58.7833 -169.9667 270° West 510 587 40,000  Level Anchorage Center
08:21PM 58.7833 -170.2500 270° West 510 587 40,000  Level Anchorage Center
08:22PM 58.7833 -170.5167 270° West 510 587 40,000  Level Anchorage Center
08:23PM 58.7667 -170.7833 263° West 500 575 40,000  Level Anchorage Center
08:24PM 58.7667 -171.0667 270° West 500 575 40,000  Level Anchorage Center
08:25PM 58.7500 -171.3333 263° West 500 575 40,000  Level Anchorage Center
08:26PM 58.7500 -171.6000 270° West 490 564 40,000  Level Anchorage Center
08:27PM 58.7333 -171.8667 263° West 490 564 40,000  Level Anchorage Center
08:28PM 58.7167 -172.1333 263° West 500 575 40,000  Level Anchorage Center
08:29PM 58.7000 -172.4000 263° West 500 575 40,000  Level Anchorage Center
08:30PM 58.6833 -172.6667 263° West 500 575 40,000  Level Anchorage Center
08:31PM 58.6833 -172.9333 270° West 500 575 40,000  Level Anchorage Center
08:32PM 58.6667 -173.2167 264° West 510 587 40,000  Level Anchorage Center
08:33PM 58.6500 -173.4833 263° West 500 575 40,000  Level Anchorage Center
08:34PM 58.6333 -173.7500 263° West 500 575 40,000  Level Anchorage Center
08:35PM 58.6167 -174.0167 263° West 510 587 40,000  Level Anchorage Center
08:36PM 58.6000 -174.2833 263° West 500 575 40,000  Level Anchorage Center
08:37PM 58.5667 -174.5500 257° West 500 575 40,000  Level Anchorage Center
08:38PM 58.5500 -174.8333 264° West 510 587 40,000  Level Anchorage Center
08:39PM 58.5333 -175.1000 263° West 510 587 40,000  Level Anchorage Center
08:40PM 58.5167 -175.3667 263° West 510 587 40,000  Level Anchorage Center
08:41PM 58.5000 -175.6333 263° West 500 575 40,000  Level Anchorage Center
08:42PM 58.4667 -175.9000 257° West 510 587 40,000  Level Anchorage Center
08:43PM 58.4500 -176.1667 263° West 500 575 40,000  Level Anchorage Center
08:44PM 58.4333 -176.4333 263° West 510 587 40,000  Level Anchorage Center
08:45PM 58.4000 -176.7000 257° West 510 587 40,000  Level Anchorage Center
08:46PM 58.3833 -176.9667 263° West 510 587 40,000  Level Anchorage Center
08:47PM 58.3333 -177.2333 250° West 500 575 40,000  Level Anchorage Center
08:50PM 58.2695 -177.4942 245° Southwest  Level FlightAware Approximate
08:53PM 58.0333 -178.5000 243° Southwest 518 596 40,000  Level Anchorage Center
08:57PM 57.8636 -179.0848 245° Southwest  Level FlightAware Approximate
08:58PM 57.8040 -179.3090 244° Southwest  Level FlightAware Approximate
08:59PM 57.6459 -179.9218 242° Southwest 518 596 40,000  Level FlightAware Transoceanic
09:00PM 57.5798 179.8441 242° Southwest 518 596 40,000  Level FlightAware Transoceanic
09:01PM 57.5133 179.6110 242° Southwest 518 596 40,000  Level FlightAware Transoceanic
09:02PM 57.4463 179.3787 242° Southwest 518 596 40,000  Level FlightAware Transoceanic
09:02PM 57.4000 179.2000 241° Southwest 519 597 40,000  Level Anchorage Center
09:03PM 57.3789 179.1473 242° Southwest 518 596 40,000  Level FlightAware Transoceanic
09:04PM 57.3111 178.9167 241° Southwest 518 596 40,000  Level FlightAware Transoceanic
09:05PM 57.2429 178.6869 241° Southwest 518 596 40,000  Level FlightAware Transoceanic
09:06PM 57.1742 178.4581 241° Southwest 518 596 40,000  Level FlightAware Transoceanic
09:07PM 57.1051 178.2300 241° Southwest 518 596 40,000  Level FlightAware Transoceanic
09:08PM 57.0357 178.0028 241° Southwest 518 596 40,000  Level FlightAware Transoceanic
09:09PM 56.9410 177.6821 240° Southwest 519 597 40,000  Level FlightAware Transoceanic
09:10PM 56.8740 177.4683 240° Southwest 519 597 40,000  Level FlightAware Transoceanic
09:10PM 56.8333 177.3500 240° Southwest 513 590 40,000  Level Anchorage Center
09:11PM 56.8066 177.2553 240° Southwest 519 597 40,000  Level FlightAware Transoceanic
09:12PM 56.7388 177.0430 240° Southwest 519 597 40,000  Level FlightAware Transoceanic
09:12PM 56.7167 177.0167 240° Southwest 514 592 40,000  Level Anchorage Center
09:13PM 56.6707 176.8316 240° Southwest 519 597 40,000  Level FlightAware Transoceanic
09:14PM 56.6022 176.6209 239° Southwest 519 597 40,000  Level FlightAware Transoceanic
09:15PM 56.5333 176.4109 239° Southwest 519 597 40,000  Level FlightAware Transoceanic
09:16PM 56.4641 176.2017 239° Southwest 519 597 40,000  Level FlightAware Transoceanic
09:17PM 56.3989 176.0139 239° Southwest 513 590 40,000  Level FlightAware Transoceanic
09:17PM 56.3000 175.7667 238° Southwest 510 587 40,000  Level Anchorage Center
09:18PM 56.2904 175.7149 239° Southwest 514 592 40,000  Level FlightAware Transoceanic
09:18PM 56.2333 175.5667 239° Southwest 520 598 40,000  Level Anchorage Center
09:19PM 56.2180 175.5008 239° Southwest 514 592 40,000  Level FlightAware Transoceanic
09:19PM 56.1667 175.3333 243° Southwest 510 587 40,000  Level Anchorage Center
09:20PM 56.1452 175.2875 238° Southwest 514 592 40,000  Level FlightAware Transoceanic
09:20PM 56.0833 175.1000 237° Southwest 510 587 40,000  Level Anchorage Center
09:21PM 56.0722 175.0750 238° Southwest 514 592 40,000  Level FlightAware Transoceanic
09:21PM 56.0167 174.9167 237° Southwest 510 587 40,000  Level Anchorage Center
09:22PM 55.9987 174.8633 238° Southwest 514 592 40,000  Level FlightAware Transoceanic
09:22PM 55.9333 174.6833 238° Southwest 500 575 40,000  Level Anchorage Center
09:23PM 55.9249 174.6524 238° Southwest 514 592 40,000  Level FlightAware Transoceanic
09:23PM 55.8667 174.5000 237° Southwest 510 587 40,000  Level Anchorage Center
09:24PM 55.7833 174.2667 238° Southwest 510 587 40,000  Level Anchorage Center
09:25PM 55.7167 174.0833 237° Southwest 510 587 40,000  Level Anchorage Center
09:26PM 55.6333 173.8333 240° Southwest 520 598 40,000  Level Anchorage Center
09:27PM 55.5667 173.6667 235° Southwest 510 587 40,000  Level Anchorage Center
09:28PM 55.4833 173.4333 238° Southwest 500 575 40,000  Level Anchorage Center
09:29PM 55.4000 173.2167 236° Southwest 500 575 40,000  Level Anchorage Center
09:30PM 55.3333 173.0167 240° Southwest 520 598 40,000  Level Anchorage Center
09:31PM 55.2500 172.8000 236° Southwest 510 587 40,000  Level Anchorage Center
09:32PM 55.1667 172.6333 229° Southwest 500 575 40,000  Level Anchorage Center
09:33PM 55.0833 172.4000 238° Southwest 510 587 40,000  Level Anchorage Center
09:34PM 55.0167 172.2167 238° Southwest 520 598 40,000  Level Anchorage Center
09:35PM 54.9333 172.0167 234° Southwest 490 564 40,000  Level Anchorage Center
09:36PM 54.8500 171.8000 236° Southwest 500 575 40,000  Level Anchorage Center
09:37PM 54.7833 171.6167 238° Southwest 500 575 40,000  Level Anchorage Center
09:39PM 54.6167 171.2333 233° Southwest 500 575 40,000  Level Anchorage Center
09:40PM 54.5167 171.0167 232° Southwest 520 598 40,000  Level Anchorage Center
09:41PM 54.4500 170.8500 236° Southwest 510 587 40,000  Level Anchorage Center
09:42PM 54.3667 170.6500 234° Southwest 500 575 40,000  Level Anchorage Center
09:43PM 54.2833 170.4667 232° Southwest 530 610 40,000  Level Anchorage Center
09:44PM 54.2000 170.2667 235° Southwest 490 564 40,000  Level Anchorage Center
09:45PM 54.1167 170.0500 237° Southwest 520 598 40,000  Level Anchorage Center
09:46PM 54.0333 169.8833 230° Southwest 510 587 40,000  Level Anchorage Center
09:47PM 53.9500 169.6833 235° Southwest 490 564 40,000  Level Anchorage Center
09:48PM 53.8833 169.5333 233° Southwest 490 564 40,000  Level Anchorage Center
09:50PM 53.7167 169.1500 234° Southwest 510 587 40,000  Level Anchorage Center
09:51PM 53.6333 168.9333 237° Southwest 530 610 40,000  Level Anchorage Center
09:53PM 53.5000 168.5333 241° Southwest 510 587 40,000  Level Anchorage Center
09:54PM 53.4333 168.3167 243° Southwest 490 564 40,000  Level Anchorage Center
09:55PM 53.3667 168.1500 236° Southwest 490 564 40,000  Level Anchorage Center
09:56PM 53.3000 167.9333 243° Southwest 470 541 40,000  Level Anchorage Center
09:58PM 53.2275 167.7282 240° Southwest  Level FlightAware Approximate
10:00PM 53.0667 167.2833 239° Southwest 493 567 40,000  Level Anchorage Center
10:05PM 52.7433 166.3993 239° Southwest  Level FlightAware Approximate
10:06PM 52.6729 166.2119 238° Southwest  Level FlightAware Approximate
10:07PM 52.5818 165.9719 238° Southwest 493 567 40,000  Level FlightAware Transoceanic
10:08PM 52.5114 165.7870 238° Southwest 493 567 40,000  Level FlightAware Transoceanic
10:09PM 52.4406 165.6026 238° Southwest 493 567 40,000  Level FlightAware Transoceanic
10:09PM 52.3833 165.4500 238° Southwest 493 567 40,000  Level Anchorage Center
10:10PM 52.3696 165.4188 238° Southwest 493 567 40,000  Level FlightAware Transoceanic
10:11PM 52.2983 165.2357 237° Southwest 493 567 40,000  Level FlightAware Transoceanic
10:12PM 52.2268 165.0531 237° Southwest 493 567 40,000  Level FlightAware Transoceanic
10:13PM 52.1549 164.8711 237° Southwest 493 567 40,000  Level FlightAware Transoceanic
10:14PM 52.0828 164.6896 237° Southwest 493 567 40,000  Level FlightAware Transoceanic
10:15PM 52.0103 164.5088 237° Southwest 493 567 40,000  Level FlightAware Transoceanic
10:16PM 51.9492 164.3539 237° Southwest 493 567 40,000  Level FlightAware Transoceanic
10:17PM 51.8759 164.1732 237° Southwest 493 567 40,000  Level FlightAware Transoceanic
10:18PM 51.8023 163.9932 236° Southwest 493 567 40,000  Level FlightAware Transoceanic
10:19PM 51.7285 163.8138 236° Southwest 493 567 40,000  Level FlightAware Transoceanic
10:19PM 51.6667 163.6833 236° Southwest 487 560 40,000  Level Anchorage Center
10:19PM 51.6500 163.6500 236° Southwest 494 568 40,000  Level Anchorage Center
10:20PM 51.6543 163.6349 236° Southwest 493 567 40,000  Level FlightAware Transoceanic
10:21PM 51.5799 163.4567 236° Southwest 493 567 40,000  Level FlightAware Transoceanic
10:22PM 51.5052 163.2790 236° Southwest 493 567 40,000  Level FlightAware Transoceanic
10:23PM 51.4302 163.1019 236° Southwest 493 567 40,000  Level FlightAware Transoceanic
10:24PM 51.3550 162.9254 236° Southwest 493 567 40,000  Level FlightAware Transoceanic
10:25PM 51.2311 162.6511 235° Southwest 487 560 40,000  Level FlightAware Transoceanic
10:26PM 51.1817 162.5416 235° Southwest 494 568 40,000  Level FlightAware Transoceanic
10:27PM 51.1026 162.3590 235° Southwest 494 568 40,000  Level FlightAware Transoceanic
10:28PM 51.0233 162.1771 235° Southwest 494 568 40,000  Level FlightAware Transoceanic
10:29PM 50.9436 161.9958 235° Southwest 494 568 40,000  Level FlightAware Transoceanic
10:29PM 50.9500 162.0000 235° Southwest 472 543 40,000  Level Anchorage Center
10:30PM 50.8638 161.8152 235° Southwest 494 568 40,000  Level FlightAware Transoceanic
10:31PM 50.7836 161.6351 235° Southwest 494 568 40,000  Level FlightAware Transoceanic
10:32PM 50.7031 161.4557 235° Southwest 494 568 40,000  Level FlightAware Transoceanic
10:33PM 50.6224 161.2769 234° Southwest 494 568 40,000  Level FlightAware Transoceanic
10:34PM 50.5414 161.0987 234° Southwest 494 568 40,000  Level FlightAware Transoceanic
10:35PM 50.4946 160.9901 234° Southwest 472 543 40,000  Level FlightAware Transoceanic
10:36PM 50.4178 160.8237 234° Southwest 472 543 40,000  Level FlightAware Transoceanic
10:37PM 50.3409 160.6578 234° Southwest 472 543 40,000  Level FlightAware Transoceanic
10:38PM 50.2636 160.4925 234° Southwest 472 543 40,000  Level FlightAware Transoceanic
10:38PM 50.2167 160.4000 234° Southwest 447 514 40,000  Level Anchorage Center
10:39PM 50.1862 160.3277 234° Southwest 472 543 40,000  Level FlightAware Transoceanic
10:39PM 50.2000 160.3833 234° Southwest 476 548 40,000  Level Anchorage Center
10:40PM 50.1085 160.1634 234° Southwest 472 543 40,000  Level FlightAware Transoceanic
10:41PM 50.0306 159.9996 233° Southwest 472 543 40,000  Level FlightAware Transoceanic
10:42PM 49.9525 159.8364 233° Southwest 472 543 40,000  Level FlightAware Transoceanic
10:43PM 49.8741 159.6738 233° Southwest 472 543 40,000  Level FlightAware Transoceanic
10:44PM 49.7887 159.4987 233° Southwest 447 514 40,000  Level FlightAware Transoceanic
10:45PM 49.7167 159.3500 233° Southwest 476 548 40,000  Level FlightAware Transoceanic
10:46PM 49.6356 159.1846 233° Southwest 476 548 40,000  Level FlightAware Transoceanic
10:47PM 49.5544 159.0198 233° Southwest 476 548 40,000  Level FlightAware Transoceanic
10:48PM 49.4729 158.8555 233° Southwest 476 548 40,000  Level FlightAware Transoceanic
10:49PM 49.3912 158.6918 232° Southwest 476 548 40,000  Level FlightAware Transoceanic
10:50PM 49.3092 158.5286 232° Southwest 476 548 40,000  Level FlightAware Transoceanic
10:51PM 49.2270 158.3659 232° Southwest 476 548 40,000  Level FlightAware Transoceanic
10:52PM 49.1446 158.2038 232° Southwest 476 548 40,000  Level FlightAware Transoceanic
10:53PM 49.0619 158.0422 232° Southwest 476 548 40,000  Level FlightAware Transoceanic
10:54PM 48.9791 157.8812 232° Southwest 476 548 40,000  Level FlightAware Transoceanic
10:55PM 48.8960 157.7207 232° Southwest 476 548 40,000  Level FlightAware Transoceanic
10:56PM 48.8127 157.5607 232° Southwest 476 548 40,000  Level FlightAware Transoceanic
10:57PM 48.7291 157.4013 231° Southwest 476 548 40,000  Level FlightAware Transoceanic
10:58PM 48.6454 157.2424 231° Southwest 476 548 40,000  Level FlightAware Transoceanic
10:59PM 48.5614 157.0840 231° Southwest 476 548 40,000  Level FlightAware Transoceanic
11:00PM 48.4772 156.9262 231° Southwest 476 548 40,000  Level FlightAware Transoceanic
11:01PM 48.3928 156.7688 231° Southwest 476 548 40,000  Level FlightAware Transoceanic
11:02PM 48.3082 156.6120 231° Southwest 476 548 40,000  Level FlightAware Transoceanic
11:03PM 48.2234 156.4557 231° Southwest 476 548 40,000  Level FlightAware Transoceanic
11:04PM 48.1383 156.3000 231° Southwest 476 548 40,000  Level FlightAware Transoceanic
11:05PM 48.0531 156.1447 231° Southwest 476 548 40,000  Level FlightAware Transoceanic
11:06PM 47.9676 155.9900 230° Southwest 476 548 40,000  Level FlightAware Transoceanic
11:07PM 47.8820 155.8358 230° Southwest 476 548 40,000  Level FlightAware Transoceanic
11:08PM 47.7961 155.6820 230° Southwest 476 548 40,000  Level FlightAware Transoceanic
11:09PM 47.7100 155.5288 230° Southwest 476 548 40,000  Level FlightAware Transoceanic
11:10PM 47.6237 155.3761 230° Southwest 476 548 40,000  Level FlightAware Transoceanic
11:11PM 47.5373 155.2239 230° Southwest 476 548 40,000  Level FlightAware Transoceanic
11:12PM 47.4506 155.0722 230° Southwest 476 548 40,000  Level FlightAware Transoceanic
11:13PM 47.3637 154.9210 230° Southwest 476 548 40,000  Level FlightAware Transoceanic
11:14PM 47.2766 154.7703 230° Southwest 476 548 40,000  Level FlightAware Transoceanic
11:15PM 47.1893 154.6201 229° Southwest 476 548 40,000  Level FlightAware Transoceanic
11:16PM 47.1019 154.4704 229° Southwest 476 548 40,000  Level FlightAware Transoceanic
11:17PM 47.0142 154.3212 229° Southwest 476 548 40,000  Level FlightAware Transoceanic
11:18PM 46.9263 154.1725 229° Southwest 476 548 40,000  Level FlightAware Transoceanic
11:19PM 46.8383 154.0242 229° Southwest 476 548 40,000  Level FlightAware Transoceanic
11:20PM 46.7501 153.8765 229° Southwest 476 548 40,000  Level FlightAware Transoceanic
11:21PM 46.6616 153.7292 229° Southwest 476 548 40,000  Level FlightAware Transoceanic
11:22PM 46.5730 153.5824 229° Southwest 476 548 40,000  Level FlightAware Transoceanic
11:23PM 46.4842 153.4361 229° Southwest 476 548 40,000  Level FlightAware Transoceanic
11:24PM 46.3952 153.2903 228° Southwest 476 548 40,000  Level FlightAware Transoceanic
11:25PM 46.3060 153.1449 228° Southwest 476 548 40,000  Level FlightAware Transoceanic
11:26PM 46.2184 153.0028 228° Southwest  Level FlightAware Approximate
11:27PM 46.1308 152.8610 228° Southwest  Level FlightAware Approximate
11:28PM 46.1319 152.8647 228° Southwest  Level FlightAware Approximate
11:29PM 46.0434 152.7242 228° Southwest  Level FlightAware Approximate
11:30PM 45.9547 152.5842 228° Southwest  Level FlightAware Approximate
11:31PM 45.8658 152.4447 228° Southwest  Level FlightAware Approximate
11:32PM 45.7768 152.3056 227° Southwest  Level FlightAware Approximate
11:33PM 45.6876 152.1669 227° Southwest  Level FlightAware Approximate
11:34PM 45.5983 152.0287 227° Southwest  Level FlightAware Approximate
11:35PM 45.5088 151.8909 227° Southwest  Level FlightAware Approximate
11:36PM 45.4191 151.7535 227° Southwest  Level FlightAware Approximate
11:37PM 45.3293 151.6166 227° Southwest  Level FlightAware Approximate
11:38PM 45.2393 151.4801 227° Southwest  Level FlightAware Approximate
11:39PM 45.1491 151.3441 227° Southwest  Level FlightAware Approximate
11:40PM 45.0588 151.2085 227° Southwest  Level FlightAware Approximate
11:41PM 44.9683 151.0733 227° Southwest  Level FlightAware Approximate
11:42PM 44.8776 150.9385 227° Southwest  Level FlightAware Approximate
11:43PM 44.7868 150.8042 226° Southwest  Level FlightAware Approximate
11:44PM 44.6959 150.6702 226° Southwest  Level FlightAware Approximate
11:45PM 44.6047 150.5367 226° Southwest  Level FlightAware Approximate
11:46PM 44.5135 150.4037 226° Southwest  Level FlightAware Approximate
11:47PM 44.4220 150.2710 226° Southwest  Level FlightAware Approximate
11:48PM 44.3304 150.1387 226° Southwest  Level FlightAware Approximate
11:49PM 44.2387 150.0069 226° Southwest  Level FlightAware Approximate
11:50PM 44.1468 149.8755 226° Southwest  Level FlightAware Approximate
11:51PM 44.0548 149.7444 226° Southwest  Level FlightAware Approximate
11:52PM 43.9626 149.6138 226° Southwest  Level FlightAware Approximate
11:53PM 43.8703 149.4836 225° Southwest  Level FlightAware Approximate
11:54PM 43.7778 149.3538 225° Southwest  Level FlightAware Approximate
11:55PM 43.6852 149.2244 225° Southwest  Level FlightAware Approximate
11:55PM 43.5330 149.0130 225° Southwest 481 554 40,000  Level FlightAware
11:55PM 43.4740 148.9320 225° Southwest 482 555 40,000  Level FlightAware
11:56PM 43.4190 148.8560 225° Southwest 483 556 40,000  Level FlightAware
11:56PM 43.3620 148.7780 225° Southwest 483 556 40,000  Level FlightAware
11:57PM 43.3080 148.7030 225° Southwest 483 556 40,000  Level FlightAware
11:58PM 43.2500 148.6250 224° Southwest 483 556 40,000  Level FlightAware
11:58PM 43.1870 148.5380 225° Southwest 482 555 40,000  Level FlightAware
11:59PM 43.1400 148.4740 225° Southwest 482 555 40,000  Level FlightAware
11:59PM 43.0830 148.3970 225° Southwest 481 554 40,000  Level FlightAware
12:00AM 43.0270 148.3210 225° Southwest 481 554 40,000  Level FlightAware
12:01AM 42.9630 148.2350 225° Southwest 481 554 40,000  Level FlightAware
12:01AM 42.9150 148.1700 225° Southwest 481 554 40,000  Level FlightAware
12:02AM 42.8580 148.0950 224° Southwest 480 552 40,000  Level FlightAware
12:02AM 42.7950 148.0100 225° Southwest 478 550 40,000  Level FlightAware
12:03AM 42.7470 147.9450 225° Southwest 479 551 40,000  Level FlightAware
12:03AM 42.6910 147.8710 224° Southwest 478 550 40,000  Level FlightAware
12:04AM 42.6350 147.7970 224° Southwest 479 551 40,000  Level FlightAware
12:05AM 42.5710 147.7120 224° Southwest 479 551 40,000  Level FlightAware
12:05AM 42.5230 147.6490 224° Southwest 480 552 40,000  Level FlightAware
12:06AM 42.4660 147.5750 224° Southwest 479 551 40,000  Level FlightAware
12:06AM 42.4100 147.5010 224° Southwest 479 551 40,000  Level FlightAware
12:07AM 42.3460 147.4170 224° Southwest 480 552 40,000  Level FlightAware
12:07AM 42.2980 147.3540 224° Southwest 482 555 40,000  Level FlightAware
12:08AM 42.2400 147.2790 224° Southwest 488 562 40,000  Level FlightAware
12:09AM 42.1840 147.2050 224° Southwest 488 562 40,000  Level FlightAware
12:09AM 42.1270 147.1310 224° Southwest 487 560 40,000  Level FlightAware
12:10AM 42.0710 147.0590 224° Southwest 487 560 40,000  Level FlightAware
12:10AM 42.0140 146.9850 224° Southwest 487 560 40,000  Level FlightAware
12:11AM 41.9570 146.9120 224° Southwest 486 559 40,000  Level FlightAware
12:12AM 41.9000 146.8380 224° Southwest 488 562 40,000  Level FlightAware
12:12AM 41.8420 146.7640 224° Southwest 489 563 40,000  Level FlightAware
12:13AM 41.7870 146.6940 224° Southwest 489 563 40,000  Level FlightAware
12:13AM 41.7200 146.6080 224° Southwest 490 564 40,000  Level FlightAware
12:14AM 41.6710 146.5450 224° Southwest 490 564 40,000  Level FlightAware
12:14AM 41.6140 146.4730 223° Southwest 490 564 40,000  Level FlightAware
12:15AM 41.5560 146.4000 223° Southwest 490 564 40,000  Level FlightAware
12:16AM 41.4900 146.3160 224° Southwest 490 564 40,000  Level FlightAware
12:16AM 41.4410 146.2550 223° Southwest 489 563 40,000  Level FlightAware
12:17AM 41.3840 146.1820 224° Southwest 488 562 40,000  Level FlightAware
12:17AM 41.3180 146.1000 223° Southwest 490 564 40,000  Level FlightAware
12:18AM 41.2680 146.0380 223° Southwest 489 563 40,000  Level FlightAware
12:19AM 41.2100 145.9650 223° Southwest 489 563 40,000  Level FlightAware
12:19AM 41.1460 145.8860 223° Southwest 488 562 40,000  Level FlightAware
12:20AM 41.0950 145.8220 223° Southwest 488 562 40,000  Level FlightAware
12:20AM 41.0390 145.7520 223° Southwest 488 562 40,000  Level FlightAware
12:21AM 40.9810 145.6800 223° Southwest 487 560 40,000  Level FlightAware
12:21AM 40.9270 145.6140 223° Southwest 488 562 40,000  Level FlightAware
12:22AM 40.8640 145.5370 223° Southwest 489 563 40,000  Level FlightAware
12:23AM 40.8060 145.4650 223° Southwest 484 557 40,000  Level FlightAware
12:23AM 40.7480 145.3940 223° Southwest 484 557 40,000  Level FlightAware
12:24AM 40.6900 145.3230 223° Southwest 488 562 40,000  Level FlightAware
12:24AM 40.6350 145.2570 222° Southwest 483 556 40,000  Level FlightAware
12:25AM 40.5620 145.1690 222° Southwest 486 559 40,000  Level FlightAware
12:26AM 40.5160 145.1130 223° Southwest 486 559 40,000  Level FlightAware
12:26AM 40.4630 145.0510 222° Southwest 486 559 40,000  Level FlightAware
12:27AM 40.4120 144.9900 222° Southwest 486 559 40,000  Level FlightAware
12:27AM 40.3360 144.8960 223° Southwest 483 556 40,000  Level FlightAware
12:28AM 40.2740 144.8200 223° Southwest 482 555 40,000  Level FlightAware
12:29AM 40.2230 144.7580 223° Southwest 482 555 40,000  Level FlightAware
12:29AM 40.1730 144.6970 223° Southwest 482 555 40,000  Level FlightAware
12:32AM 39.9632 144.4463 223° Southwest  Level FlightAware Approximate
12:33AM 39.8662 144.3312 222° Southwest  Level FlightAware Approximate
12:33AM 39.7530 144.2040 222° Southwest 482 555 40,000  Level FlightAware
12:34AM 39.6960 144.1370 222° Southwest 481 554 40,000  Level FlightAware
12:34AM 39.6210 144.0680 215° Southwest 481 554 40,000  Level FlightAware
12:35AM 39.5500 144.0250 205° Southwest 480 552 40,000  Level FlightAware
12:36AM 39.4810 143.9830 205° Southwest 481 554 40,000  Level FlightAware
12:36AM 39.4080 143.9400 204° Southwest 481 554 40,000  Level FlightAware
12:37AM 39.3450 143.9020 205° Southwest 480 552 40,000  Level FlightAware
12:37AM 39.2640 143.8530 205° Southwest 479 551 40,000  Level FlightAware
12:38AM 39.1920 143.8100 205° Southwest 478 550 40,000  Level FlightAware
12:39AM 39.1210 143.7680 205° Southwest 476 548 40,000  Level FlightAware
12:39AM 39.0490 143.7250 205° Southwest 481 554 40,000  Level FlightAware
12:40AM 38.9790 143.6840 204° Southwest 481 554 40,000  Level FlightAware
12:40AM 38.9070 143.6420 204° Southwest 476 548 40,000  Level FlightAware
12:41AM 38.8370 143.6000 205° Southwest 476 548 40,000  Level FlightAware
12:41AM 38.7670 143.5590 205° Southwest 476 548 40,000  Level FlightAware
12:42AM 38.6840 143.5100 205° Southwest 476 548 40,000  Level FlightAware
12:43AM 38.6130 143.4680 205° Southwest 477 549 40,000  Level FlightAware
12:43AM 38.5310 143.4210 204° Southwest 477 549 40,000  Level FlightAware
12:44AM 38.4690 143.3850 204° Southwest 477 549 40,000  Level FlightAware
12:44AM 38.3990 143.3440 205° Southwest 476 548 40,000  Level FlightAware
12:45AM 38.3170 143.2960 205° Southwest 477 549 40,000  Level FlightAware
12:46AM 38.2460 143.2550 204° Southwest 477 549 40,000  Level FlightAware
12:46AM 38.1850 143.2200 204° Southwest 479 551 40,000  Level FlightAware
12:47AM 38.1130 143.1780 205° Southwest 477 549 40,000  Level FlightAware
12:47AM 38.0310 143.1310 204° Southwest 477 549 40,000  Level FlightAware
12:48AM 37.9600 143.0910 204° Southwest 476 548 40,000  Level FlightAware
12:49AM 37.8990 143.0560 204° Southwest 477 549 40,000  Level FlightAware
12:49AM 37.8170 143.0090 204° Southwest 477 549 40,000  Level FlightAware
12:50AM 37.7450 142.9680 204° Southwest 477 549 40,000  Level FlightAware
12:50AM 37.6840 142.9330 204° Southwest 478 550 40,000  Level FlightAware
12:51AM 37.6130 142.8930 204° Southwest 478 550 40,000  Level FlightAware
12:52AM 37.5310 142.8460 204° Southwest 478 550 40,000  Level FlightAware
12:52AM 37.4590 142.8050 204° Southwest 479 551 40,000  Level FlightAware
12:53AM 37.3970 142.7710 204° Southwest 479 551 40,000  Level FlightAware
12:53AM 37.3250 142.7300 204° Southwest 479 551 40,000  Level FlightAware
12:54AM 37.2420 142.6840 204° Southwest 478 550 40,000  Level FlightAware
12:54AM 37.1720 142.6440 204° Southwest 477 549 40,000  Level FlightAware
12:55AM 37.1100 142.6090 204° Southwest 478 550 40,000  Level FlightAware
12:56AM 37.0280 142.5630 204° Southwest 477 549 40,000  Level FlightAware
12:56AM 36.9680 142.5300 204° Southwest 478 550 40,000  Level FlightAware
12:57AM 36.8950 142.4890 204° Southwest 480 552 40,000  Level FlightAware
12:57AM 36.8220 142.4490 204° Southwest 480 552 40,000 -120 Level FlightAware
12:58AM 36.7400 142.4040 204° Southwest 478 550 39,900 -1,020 Descending FlightAware
12:59AM 36.6590 142.3590 204° Southwest 473 544 38,700 -2,040 Descending FlightAware
12:59AM 36.5880 142.3160 206° Southwest 482 555 37,400 -2,040 Descending FlightAware
01:00AM 36.5220 142.2640 212° Southwest 483 556 36,400 -1,320 Descending FlightAware
01:00AM 36.4570 142.2110 213° Southwest 482 555 35,900 -1,320 Descending FlightAware
01:01AM 36.3920 142.1580 213° Southwest 483 556 34,900 -2,280 Descending FlightAware
01:02AM 36.3260 142.1040 213° Southwest 485 558 33,300 -3,000 Descending FlightAware
01:02AM 36.2600 142.0500 213° Southwest 483 556 31,400 -3,180 Descending FlightAware
01:03AM 36.1930 141.9960 213° Southwest 489 563 29,600 -2,760 Descending FlightAware
01:03AM 36.1260 141.9410 214° Southwest 487 560 28,200 -2,400 Descending FlightAware
01:04AM 36.0600 141.8880 213° Southwest 484 557 26,800 -2,520 Descending FlightAware
01:04AM 35.9950 141.8350 213° Southwest 468 539 25,300 -2,520 Descending FlightAware
01:05AM 35.9310 141.7830 213° Southwest 460 529 23,900 -2,520 Descending FlightAware
01:06AM 35.8680 141.7330 213° Southwest 460 529 22,400 -2,400 Descending FlightAware
01:06AM 35.8120 141.6880 213° Southwest 447 514 21,100 -2,340 Descending FlightAware
01:07AM 35.7590 141.6450 213° Southwest 447 514 19,900 -2,400 Descending FlightAware
01:07AM 35.6770 141.5790 213° Southwest 298 343 18,000 -2,340 Descending FlightAware
01:08AM 35.6470 141.5460 222° Southwest 427 491 17,300 -1,920 Descending FlightAware
01:08AM 35.6300 141.5160 235° Southwest 420 483 16,900 -1,800 Descending FlightAware
01:08AM 35.6200 141.4690 255° West 411 473 16,200 -2,040 Descending FlightAware
01:09AM 35.6300 141.4060 281° West 419 482 15,200 -2,100 Descending FlightAware
01:09AM 35.6460 141.3660 296° West 396 456 14,500 -2,040 Descending FlightAware
01:10AM 35.6810 141.2800 297° West 384 442 13,100 -2,100 Descending FlightAware
01:11AM 35.7110 141.2070 297° West 381 438 11,700 -1,500 Descending FlightAware
01:11AM 35.7390 141.1380 297° West 357 411 11,100 -780 Descending FlightAware
01:12AM 35.7710 141.0580 296° West 316 364 10,700 -540 Descending FlightAware
01:13AM 35.7940 141.0000 296° West 293 337 10,400 -540 Descending FlightAware
01:13AM 35.8150 140.9460 296° West 279 321 10,100 -720 Descending FlightAware
01:13AM 35.8250 140.9210 296° West 277 319 9,800 -900 Descending FlightAware
01:14AM 35.8360 140.8930 296° West 274 315 9,500 -1,080 Descending FlightAware
01:14AM 35.8440 140.8720 295° West 273 314 9,200 -660 Descending FlightAware
01:14AM 35.8600 140.8290 295° West 267 307 9,100 -180 Descending FlightAware
01:15AM 35.8720 140.7990 296° West 267 307 9,100  Level FlightAware
01:15AM 35.8800 140.7780 295° West 268 308 9,100  Level FlightAware
01:15AM 35.8920 140.7490 297° West 268 308 9,100  Level FlightAware
01:16AM 35.9020 140.7220 295° West 269 310 9,100 -480 Level FlightAware
01:16AM 35.9130 140.6930 295° West 268 308 8,800 -720 Descending FlightAware
01:16AM 35.9220 140.6710 297° West 263 303 8,700 -540 Descending FlightAware
01:17AM 35.9320 140.6460 296° West 253 291 8,500 -600 Descending FlightAware
01:17AM 35.9390 140.6190 288° West 247 284 8,300 -480 Descending FlightAware
01:18AM 35.9360 140.5770 265° West 245 282 8,100 -240 Descending FlightAware
01:18AM 35.9320 140.5500 260° West 245 282 8,100  Level FlightAware
01:18AM 35.9300 140.5260 264° West 246 283 8,100  Level FlightAware
01:18AM 35.9290 140.5100 266° West 245 282 8,100 -540 Level FlightAware
01:19AM 35.9300 140.4930 274° West 243 280 7,900 -1,020 Descending FlightAware
01:19AM 35.9350 140.4600 281° West 239 275 7,500 -1,260 Descending FlightAware
01:19AM 35.9410 140.4350 287° West 237 273 7,000 -1,560 Descending FlightAware
01:20AM 35.9490 140.4100 292° West 234 269 6,500 -1,440 Descending FlightAware
01:20AM 35.9540 140.3940 291° West 227 261 6,200 -900 Descending FlightAware
01:20AM 35.9630 140.3700 295° West 216 249 6,000 -600 Descending FlightAware
01:21AM 35.9700 140.3430 288° West 211 243 5,800 -660 Descending FlightAware
01:21AM 35.9730 140.3280 284° West 209 241 5,600 -960 Descending FlightAware
01:21AM 35.9770 140.3040 282° West 207 238 5,300 -1,080 Descending FlightAware
01:22AM 35.9760 140.2760 267° West 205 236 4,800 -1,200 Descending FlightAware
01:22AM 35.9710 140.2660 238° Southwest 206 237 4,600 -1,140 Descending FlightAware
01:22AM 35.9680 140.2610 233° Southwest 205 236 4,500 -780 Descending FlightAware
01:22AM 35.9620 140.2540 223° Southwest 198 228 4,400 -900 Descending FlightAware
01:22AM 35.9570 140.2510 206° Southwest 195 224 4,300 -1,200 Descending FlightAware
01:22AM 35.9530 140.2490 202° Southwest 199 229 4,200 -1,200 Descending FlightAware
01:22AM 35.9450 140.2480 186° South 196 226 4,000 -1,200 Descending FlightAware
01:23AM 35.9300 140.2550 159° South 189 217 3,600 -1,320 Descending FlightAware
01:23AM 35.9110 140.2690 149° Southeast 186 214 3,100 -1,140 Descending FlightAware
01:23AM 35.8950 140.2810 149° Southeast 186 214 2,800 -960 Descending FlightAware
01:24AM 35.8770 140.2940 150° Southeast 184 212 2,400 -1,020 Descending FlightAware
01:24AM 35.8680 140.3000 152° Southeast 178 205 2,200 -960 Descending FlightAware
01:24AM 35.8550 140.3100 148° Southeast 163 188 1,900 -780 Descending FlightAware
01:25AM 35.8420 140.3190 151° Southeast 151 174 1,700 -720 Descending FlightAware
01:25AM 35.8330 140.3260 148° Southeast 139 160 1,500 -720 Descending FlightAware
01:25AM 35.8220 140.3340 149° Southeast 132 152 1,300 -780 Descending FlightAware
01:26AM 35.8110 140.3410 153° Southeast 133 153 1,000 -780 Descending FlightAware
01:26AM 35.8050 140.3460 146° Southeast 132 152 900 -660 Descending FlightAware
01:26AM 35.7910 140.3560 150° Southeast 131 151 600 -660 Descending FlightAware
01:27AM 35.7810 140.3630 150° Southeast 131 151 400 -300 Descending FlightAware
01:27AM 35.7680 140.3730 148° Southeast 131 151 400  Level FlightAware